createdAt,value
2023-05-05T00:00:13.301Z,52.96
2023-05-05T00:03:02.135Z,53.48
2023-05-05T00:05:31.216Z,53.46
2023-05-05T00:07:59.837Z,54.29
2023-05-05T00:10:28.915Z,54.27
2023-05-05T00:12:58.958Z,54.28
2023-05-05T00:15:27.920Z,54.05
2023-05-05T00:17:56.755Z,54.35
2023-05-05T00:20:25.763Z,55.05
2023-05-05T00:22:54.620Z,54.60
2023-05-05T00:25:23.513Z,54.23
2023-05-05T00:27:52.134Z,54.58
2023-05-05T00:30:22.947Z,55.04
2023-05-05T00:32:52.275Z,55.95
2023-05-05T00:35:21.718Z,55.28
2023-05-05T00:37:50.380Z,55.74
2023-05-05T00:40:19.511Z,55.69
2023-05-05T00:42:50.822Z,55.92
2023-05-05T00:45:22.882Z,55.64
2023-05-05T00:47:55.755Z,56.02
2023-05-05T00:50:27.291Z,55.35
2023-05-05T00:53:01.484Z,55.61
2023-05-05T00:55:30.906Z,55.82
2023-05-05T00:58:01.219Z,56.09
2023-05-05T01:00:32.240Z,56.30
2023-05-05T01:03:01.591Z,57.22
2023-05-05T01:05:47.278Z,56.76
2023-05-05T01:08:37.177Z,56.38
2023-05-05T01:11:21.694Z,57.35
2023-05-05T01:14:02.541Z,57.22
2023-05-05T01:16:37.455Z,56.22
2023-05-05T01:19:27.225Z,56.43
2023-05-05T01:22:03.806Z,55.44
2023-05-05T01:25:10.713Z,56.13
2023-05-05T01:27:56.703Z,56.24
2023-05-05T01:31:07.597Z,56.31
2023-05-05T01:33:46.903Z,57.51
2023-05-05T01:36:24.633Z,57.57
2023-05-05T01:39:01.595Z,58.18
2023-05-05T01:41:39.318Z,57.66
2023-05-05T01:44:11.753Z,57.70
2023-05-05T01:46:40.732Z,57.66
2023-05-05T01:49:13.457Z,58.82
2023-05-05T01:51:44.569Z,58.82
2023-05-05T01:54:16.291Z,58.71
2023-05-05T01:56:47.335Z,58.33
2023-05-05T01:59:17.327Z,57.88
2023-05-05T02:01:49.982Z,57.72
2023-05-05T02:04:23.395Z,56.95
2023-05-05T02:06:57.122Z,57.07
2023-05-05T02:09:29.372Z,57.57
2023-05-05T02:12:00.774Z,57.63
2023-05-05T02:14:32.201Z,58.26
2023-05-05T02:17:02.208Z,58.37
2023-05-05T02:19:40.801Z,58.84
2023-05-05T02:22:10.365Z,58.54
2023-05-05T02:24:39.885Z,58.92
2023-05-05T02:27:10.972Z,59.12
2023-05-05T02:29:48.897Z,58.83
2023-05-05T02:32:23.538Z,58.89
2023-05-05T02:34:56.279Z,59.74
2023-05-05T02:37:30.955Z,59.18
2023-05-05T02:40:05.311Z,59.43
2023-05-05T02:42:40.986Z,59.41
2023-05-05T02:45:17.088Z,58.93
2023-05-05T02:47:49.133Z,57.96
2023-05-05T02:50:19.790Z,58.87
2023-05-05T02:53:05.984Z,58.39
2023-05-05T02:55:45.267Z,58.56
2023-05-05T02:58:25.365Z,57.81
2023-05-05T03:01:12.019Z,57.84
2023-05-05T03:03:47.758Z,56.11
2023-05-05T03:06:23.860Z,56.49
2023-05-05T03:09:04.210Z,56.33
2023-05-05T03:11:39.823Z,56.19
2023-05-05T03:14:13.973Z,55.17
2023-05-05T03:16:46.600Z,55.63
2023-05-05T03:19:19.613Z,55.99
2023-05-05T03:21:53.527Z,55.67
2023-05-05T03:24:22.790Z,56.40
2023-05-05T03:27:00.261Z,55.58
2023-05-05T03:29:34.792Z,55.99
2023-05-05T03:32:07.159Z,56.12
2023-05-05T03:34:37.840Z,56.04
2023-05-05T03:37:09.354Z,57.37
2023-05-05T03:39:39.500Z,58.70
2023-05-05T03:42:09.910Z,57.40
2023-05-05T03:44:38.569Z,56.93
2023-05-05T03:47:07.704Z,58.83
2023-05-05T03:49:38.948Z,58.99
2023-05-05T03:52:09.793Z,57.56
2023-05-05T03:54:39.310Z,57.40
2023-05-05T03:57:08.326Z,59.37
2023-05-05T03:59:36.934Z,58.33
2023-05-05T04:02:06.042Z,57.89
2023-05-05T04:04:34.884Z,57.56
2023-05-05T04:07:03.966Z,56.53
2023-05-05T04:09:34.007Z,56.22
2023-05-05T04:12:03.132Z,56.83
2023-05-05T04:14:31.871Z,54.25
2023-05-05T04:17:00.805Z,54.28
2023-05-05T04:19:29.811Z,51.98
2023-05-05T04:21:58.826Z,51.24
2023-05-05T04:24:27.954Z,51.04
2023-05-05T04:26:58.639Z,50.29
2023-05-05T04:29:28.769Z,50.78
2023-05-05T04:31:58.208Z,48.92
2023-05-05T04:34:27.004Z,48.75
2023-05-05T04:36:56.875Z,49.71
2023-05-05T04:39:25.749Z,49.28
2023-05-05T04:41:54.898Z,49.30
2023-05-05T04:44:25.766Z,49.54
2023-05-05T04:46:54.884Z,50.16
2023-05-05T04:49:23.678Z,49.58
2023-05-05T04:51:52.826Z,50.11
2023-05-05T04:54:21.500Z,49.22
2023-05-05T04:56:50.948Z,48.77
2023-05-05T04:59:19.677Z,48.91
2023-05-05T05:01:50.049Z,49.76
2023-05-05T05:04:19.160Z,49.58
2023-05-05T05:06:48.262Z,49.00
2023-05-05T05:09:17.672Z,47.64
2023-05-05T05:11:46.673Z,47.29
2023-05-05T05:14:15.403Z,48.48
2023-05-05T05:16:44.453Z,50.52
2023-05-05T05:19:14.515Z,47.05
2023-05-05T05:21:43.670Z,46.44
2023-05-05T05:24:12.678Z,46.19
2023-05-05T05:26:41.810Z,46.56
2023-05-05T05:29:10.493Z,47.48
2023-05-05T05:31:39.887Z,45.87
2023-05-05T05:34:10.715Z,44.08
2023-05-05T05:36:42.607Z,44.50
2023-05-05T05:39:11.381Z,43.07
2023-05-05T05:41:40.738Z,41.69
2023-05-05T05:44:09.487Z,41.94
2023-05-05T05:46:38.602Z,42.00
2023-05-05T05:49:07.707Z,42.40
2023-05-05T05:51:36.782Z,42.56
2023-05-05T05:54:06.989Z,42.97
2023-05-05T05:56:36.248Z,43.65
2023-05-05T05:59:08.071Z,41.92
2023-05-05T06:01:37.771Z,43.04
2023-05-05T06:04:06.653Z,43.04
2023-05-05T06:06:35.865Z,42.27
2023-05-05T06:09:06.223Z,41.50
2023-05-05T06:11:37.094Z,41.08
2023-05-05T06:14:05.993Z,41.36
2023-05-05T06:16:35.162Z,40.80
2023-05-05T06:19:10.631Z,40.37
2023-05-05T06:21:40.882Z,40.13
2023-05-05T06:24:11.004Z,39.04
2023-05-05T06:26:40.526Z,39.51
2023-05-05T06:29:10.517Z,39.10
2023-05-05T06:31:41.199Z,39.23
2023-05-05T06:34:11.026Z,38.79
2023-05-05T06:36:40.046Z,37.73
2023-05-05T06:39:10.076Z,39.22
2023-05-05T06:41:39.085Z,38.07
2023-05-05T06:44:07.721Z,37.76
2023-05-05T06:46:36.703Z,37.40
2023-05-05T06:49:05.533Z,36.40
2023-05-05T06:51:34.601Z,36.91
2023-05-05T06:54:03.210Z,35.67
2023-05-05T06:56:33.860Z,35.41
2023-05-05T06:59:02.530Z,35.77
2023-05-05T07:01:31.501Z,35.44
2023-05-05T07:04:00.267Z,34.67
2023-05-05T07:06:29.372Z,36.34
2023-05-05T07:08:58.042Z,35.04
2023-05-05T07:11:27.049Z,35.50
2023-05-05T07:13:57.026Z,34.65
2023-05-05T07:16:27.080Z,33.39
2023-05-05T07:18:55.818Z,33.10
2023-05-05T07:21:24.854Z,33.00
2023-05-05T07:23:53.571Z,32.97
2023-05-05T07:26:22.539Z,33.24
2023-05-05T07:28:52.239Z,32.25
2023-05-05T07:31:23.389Z,32.77
2023-05-05T07:33:52.320Z,32.78
2023-05-05T07:36:22.316Z,32.85
2023-05-05T07:38:51.359Z,32.85
2023-05-05T07:41:20.423Z,32.24
2023-05-05T07:43:49.021Z,33.37
2023-05-05T07:46:18.431Z,33.15
2023-05-05T07:48:48.823Z,32.92
2023-05-05T07:51:17.865Z,32.30
2023-05-05T07:53:46.650Z,32.70
2023-05-05T07:56:15.748Z,31.66
2023-05-05T07:58:44.524Z,31.95
2023-05-05T08:01:13.507Z,32.00
2023-05-05T08:03:42.447Z,32.42
2023-05-05T08:06:16.088Z,31.97
2023-05-05T08:08:44.734Z,31.70
2023-05-05T08:11:13.645Z,31.43
2023-05-05T08:13:44.206Z,31.03
2023-05-05T08:16:13.323Z,31.56
2023-05-05T08:18:42.512Z,32.65
2023-05-05T08:21:13.371Z,32.56
2023-05-05T08:23:42.124Z,32.45
2023-05-05T08:26:11.031Z,33.28
2023-05-05T08:28:40.044Z,32.32
2023-05-05T08:31:09.963Z,32.31
2023-05-05T08:33:38.718Z,32.14
2023-05-05T08:36:08.954Z,32.28
2023-05-05T08:38:39.016Z,32.04
2023-05-05T08:41:13.970Z,32.18
2023-05-05T08:43:45.719Z,31.74
2023-05-05T08:46:15.179Z,31.65
2023-05-05T08:48:45.967Z,31.82
2023-05-05T08:51:20.187Z,32.30
2023-05-05T08:53:58.704Z,31.23
2023-05-05T08:56:33.369Z,31.44
2023-05-05T08:59:03.828Z,31.49
2023-05-05T09:01:34.130Z,32.67
2023-05-05T09:04:05.521Z,32.03
2023-05-05T09:06:35.639Z,32.02
2023-05-05T09:09:05.806Z,31.26
2023-05-05T09:11:37.034Z,31.37
2023-05-05T09:14:06.291Z,31.62
2023-05-05T09:16:35.323Z,31.96
2023-05-05T09:19:05.446Z,31.83
2023-05-05T09:21:34.454Z,31.33
2023-05-05T09:24:10.023Z,32.23
2023-05-05T09:26:42.201Z,31.84
2023-05-05T09:29:18.252Z,31.84
2023-05-05T09:32:05.691Z,29.52
2023-05-05T09:34:35.932Z,29.64
2023-05-05T09:37:06.108Z,29.55
2023-05-05T09:39:36.479Z,29.03
2023-05-05T09:42:05.900Z,29.17
2023-05-05T09:44:36.732Z,28.64
2023-05-05T09:47:18.012Z,28.75
2023-05-05T09:49:57.685Z,28.32
2023-05-05T09:52:26.924Z,28.02
2023-05-05T09:54:58.272Z,27.54
2023-05-05T09:57:29.599Z,26.87
2023-05-05T10:00:00.192Z,28.14
2023-05-05T10:02:34.882Z,27.84
2023-05-05T10:05:10.169Z,28.58
2023-05-05T10:07:41.139Z,27.89
2023-05-05T10:10:13.798Z,27.79
2023-05-05T10:12:43.299Z,27.33
2023-05-05T10:15:13.774Z,26.56
2023-05-05T10:20:22.398Z,25.97
2023-05-05T10:22:54.117Z,26.52
2023-05-05T10:25:31.558Z,26.58
2023-05-05T10:28:02.333Z,26.75
2023-05-05T10:30:32.892Z,25.73
2023-05-05T10:33:30.349Z,26.47
2023-05-05T10:36:03.282Z,25.30
2023-05-05T10:38:33.928Z,24.90
2023-05-05T10:41:05.612Z,26.66
2023-05-05T10:43:35.293Z,28.27
2023-05-05T10:46:04.276Z,28.75
2023-05-05T10:48:42.731Z,28.60
2023-05-05T10:51:39.288Z,28.81
2023-05-05T10:54:18.107Z,28.90
2023-05-05T10:56:49.272Z,30.16
2023-05-05T10:59:47.526Z,29.60
2023-05-05T11:02:25.615Z,29.81
2023-05-05T11:05:22.657Z,30.21
2023-05-05T11:07:52.867Z,30.71
2023-05-05T11:10:23.303Z,29.94
2023-05-05T11:13:21.994Z,29.31
2023-05-05T11:15:54.225Z,28.75
2023-05-05T11:18:37.844Z,29.42
2023-05-05T11:21:19.068Z,29.96
2023-05-05T11:23:51.057Z,30.12
2023-05-05T11:26:52.925Z,30.63
2023-05-05T11:29:23.021Z,31.20
2023-05-05T11:32:13.190Z,32.89
2023-05-05T11:34:50.917Z,32.31
2023-05-05T11:37:25.173Z,32.58
2023-05-05T11:40:14.691Z,33.04
2023-05-05T11:42:43.901Z,33.11
2023-05-05T11:45:25.014Z,33.41
2023-05-05T11:47:53.977Z,33.35
2023-05-05T11:50:23.512Z,34.01
2023-05-05T11:52:52.764Z,34.15
2023-05-05T11:55:25.702Z,35.11
2023-05-05T11:57:54.758Z,34.31
2023-05-05T12:00:34.822Z,35.34
2023-05-05T12:03:05.279Z,35.61
2023-05-05T12:05:36.443Z,35.51
2023-05-05T12:08:06.502Z,35.85
2023-05-05T12:10:35.249Z,36.00
2023-05-05T12:13:04.289Z,35.56
2023-05-05T12:15:34.874Z,36.14
2023-05-05T12:18:05.952Z,36.60
2023-05-05T12:20:36.650Z,36.99
2023-05-05T12:23:05.784Z,37.16
2023-05-05T12:25:41.588Z,37.67
2023-05-05T12:28:10.864Z,37.34
2023-05-05T12:30:41.199Z,37.49
2023-05-05T12:33:10.233Z,37.67
2023-05-05T12:35:39.085Z,37.85
2023-05-05T12:38:08.298Z,38.32
2023-05-05T12:40:48.921Z,37.76
2023-05-05T12:43:32.719Z,38.72
2023-05-05T12:46:09.222Z,38.76
2023-05-05T12:48:40.233Z,37.67
2023-05-05T12:51:19.712Z,37.45
2023-05-05T12:53:50.904Z,38.40
2023-05-05T12:56:34.032Z,39.02
2023-05-05T12:59:04.660Z,38.51
2023-05-05T13:01:35.407Z,38.29
2023-05-05T13:04:13.947Z,38.53
2023-05-05T13:06:45.286Z,38.29
2023-05-05T13:09:25.136Z,38.28
2023-05-05T13:11:54.559Z,38.56
2023-05-05T13:14:24.403Z,38.79
2023-05-05T13:16:54.501Z,39.04
2023-05-05T13:19:25.098Z,38.67
2023-05-05T13:21:54.415Z,38.70
2023-05-05T13:24:38.189Z,39.35
2023-05-05T13:27:13.197Z,37.94
2023-05-05T13:29:42.589Z,38.16
2023-05-05T13:32:12.695Z,38.84
2023-05-05T13:34:42.603Z,38.33
2023-05-05T13:37:11.511Z,38.49
2023-05-05T13:39:40.555Z,38.20
2023-05-05T13:42:09.361Z,39.43
2023-05-05T13:44:38.434Z,38.91
2023-05-05T13:47:07.441Z,39.06
2023-05-05T13:49:37.787Z,39.37
2023-05-05T13:52:06.635Z,39.73
2023-05-05T13:54:35.539Z,40.08
2023-05-05T13:57:04.977Z,39.97
2023-05-05T13:59:34.078Z,40.10
2023-05-05T14:02:02.737Z,40.62
2023-05-05T14:04:31.746Z,40.97
2023-05-05T14:07:02.087Z,40.51
2023-05-05T14:09:31.277Z,40.56
2023-05-05T14:12:00.016Z,40.66
2023-05-05T14:14:29.572Z,40.76
2023-05-05T14:16:58.270Z,40.58
2023-05-05T14:19:27.641Z,39.95
2023-05-05T14:21:56.280Z,40.14
2023-05-05T14:24:27.403Z,40.36
2023-05-05T14:26:56.128Z,40.30
2023-05-05T14:29:25.133Z,39.98
2023-05-05T14:31:53.901Z,40.21
2023-05-05T14:34:23.249Z,39.71
2023-05-05T14:36:51.967Z,40.41
2023-05-05T14:39:20.879Z,40.54
2023-05-05T14:41:51.076Z,40.31
2023-05-05T14:44:20.311Z,40.45
2023-05-05T14:46:50.462Z,40.00
2023-05-05T14:49:20.174Z,40.14
2023-05-05T14:51:49.580Z,39.64
2023-05-05T14:54:27.532Z,39.51
2023-05-05T14:56:58.362Z,40.35
2023-05-05T14:59:27.630Z,39.59
2023-05-05T15:01:57.132Z,39.60
2023-05-05T15:04:26.302Z,39.35
2023-05-05T15:06:54.990Z,39.98
2023-05-05T15:09:23.891Z,39.71
2023-05-05T15:11:52.532Z,40.05
2023-05-05T15:14:22.927Z,39.25
2023-05-05T15:16:51.723Z,39.74
2023-05-05T15:19:20.765Z,40.25
2023-05-05T15:21:53.187Z,40.56
2023-05-05T15:24:22.832Z,39.95
2023-05-05T15:26:51.633Z,39.99
2023-05-05T15:29:21.906Z,40.06
2023-05-05T15:31:50.612Z,39.81
2023-05-05T15:34:19.591Z,40.69
2023-05-05T15:36:48.501Z,40.16
2023-05-05T15:39:17.526Z,39.66
2023-05-05T15:41:46.208Z,39.90
2023-05-05T15:44:15.275Z,39.87
2023-05-05T15:46:45.330Z,39.59
2023-05-05T15:49:14.365Z,39.36
2023-05-05T15:51:43.040Z,39.66
2023-05-05T15:54:12.042Z,39.34
2023-05-05T15:56:40.770Z,39.69
2023-05-05T15:59:09.770Z,39.72
2023-05-05T16:01:38.602Z,39.09
2023-05-05T16:04:09.005Z,39.17
2023-05-05T16:06:37.698Z,39.18
2023-05-05T16:09:06.821Z,39.68
2023-05-05T16:11:37.165Z,39.74
2023-05-05T16:14:06.129Z,40.03
2023-05-05T16:16:34.851Z,40.10
2023-05-05T16:19:04.801Z,40.57
2023-05-05T16:21:34.904Z,40.45
2023-05-05T16:24:03.860Z,40.49
2023-05-05T16:26:32.514Z,40.72
2023-05-05T16:29:01.472Z,39.94
2023-05-05T16:31:30.191Z,39.94
2023-05-05T16:33:59.113Z,40.32
2023-05-05T16:36:28.885Z,39.51
2023-05-05T16:38:59.717Z,39.84
2023-05-05T16:41:28.692Z,39.75
2023-05-05T16:43:57.707Z,39.13
2023-05-05T16:46:26.554Z,39.14
2023-05-05T16:48:55.554Z,39.78
2023-05-05T16:51:24.341Z,38.87
2023-05-05T16:53:53.694Z,39.45
2023-05-05T16:56:23.801Z,39.37
2023-05-05T16:58:53.041Z,38.90
2023-05-05T17:01:21.813Z,39.27
2023-05-05T17:03:50.886Z,39.12
2023-05-05T17:06:19.641Z,40.01
2023-05-05T17:08:48.571Z,40.06
2023-05-05T17:11:17.262Z,40.20
2023-05-05T17:13:47.745Z,40.58
2023-05-05T17:16:16.579Z,40.86
2023-05-05T17:18:45.523Z,41.65
2023-05-05T17:21:14.316Z,41.97
2023-05-05T17:23:43.261Z,42.24
2023-05-05T17:26:11.929Z,42.37
2023-05-05T17:28:40.818Z,42.75
2023-05-05T17:31:11.067Z,42.99
2023-05-05T17:33:40.122Z,43.14
2023-05-05T17:36:10.011Z,43.60
2023-05-05T17:38:38.993Z,43.31
2023-05-05T17:41:07.818Z,43.56
2023-05-05T17:43:36.795Z,43.59
2023-05-05T17:46:05.864Z,43.74
2023-05-05T17:48:36.317Z,44.36
2023-05-05T17:51:05.303Z,44.79
2023-05-05T17:53:34.455Z,44.20
2023-05-05T17:56:03.271Z,44.30
2023-05-05T17:58:32.228Z,44.72
2023-05-05T18:01:01.086Z,44.76
2023-05-05T18:03:30.233Z,44.63
2023-05-05T18:06:01.274Z,45.06
2023-05-05T18:08:30.257Z,45.18
2023-05-05T18:10:58.955Z,45.18
2023-05-05T18:13:28.060Z,45.47
2023-05-05T18:15:56.783Z,45.84
2023-05-05T18:18:26.313Z,46.09
2023-05-05T18:20:55.167Z,46.04
2023-05-05T18:23:25.816Z,46.30
2023-05-05T18:25:54.532Z,46.14
2023-05-05T18:28:23.507Z,46.43
2023-05-05T18:30:52.174Z,46.59
2023-05-05T18:33:21.193Z,46.74
2023-05-05T18:35:49.919Z,47.06
2023-05-05T18:38:18.812Z,47.21
2023-05-05T18:40:48.955Z,47.25
2023-05-05T18:43:18.031Z,47.78
2023-05-05T18:45:46.803Z,47.76
2023-05-05T18:48:16.517Z,48.02
2023-05-05T18:50:45.838Z,48.41
2023-05-05T18:53:16.547Z,48.59
2023-05-05T18:55:47.082Z,48.88
2023-05-05T18:58:17.618Z,48.92
2023-05-05T19:00:46.337Z,48.93
2023-05-05T19:03:15.449Z,49.49
2023-05-05T19:05:44.261Z,49.69
2023-05-05T19:08:13.319Z,50.04
2023-05-05T19:10:41.959Z,49.59
2023-05-05T19:13:11.692Z,49.97
2023-05-05T19:15:41.862Z,50.03
2023-05-05T19:18:11.525Z,50.41
2023-05-05T19:20:42.895Z,50.61
2023-05-05T19:23:12.322Z,50.80
2023-05-05T19:25:41.472Z,51.01
2023-05-05T19:28:11.216Z,51.59
2023-05-05T19:30:41.305Z,51.21
2023-05-05T19:33:10.513Z,51.31
2023-05-05T19:35:39.363Z,51.19
2023-05-05T19:38:09.807Z,51.26
2023-05-05T19:40:39.528Z,51.44
2023-05-05T19:43:09.116Z,51.71
2023-05-05T19:45:37.952Z,51.50
2023-05-05T19:48:08.603Z,51.62
2023-05-05T19:50:37.327Z,52.26
2023-05-05T19:53:06.338Z,52.17
2023-05-05T19:55:35.610Z,52.47
2023-05-05T19:58:04.610Z,52.40
2023-05-05T20:00:33.382Z,52.62
2023-05-05T20:03:02.469Z,52.98
2023-05-05T20:05:32.663Z,52.96
2023-05-05T20:08:01.690Z,53.20
2023-05-05T20:10:30.361Z,53.26
2023-05-05T20:12:59.389Z,53.27
2023-05-05T20:15:28.285Z,53.61
2023-05-05T20:17:57.179Z,53.84
2023-05-05T20:20:25.827Z,54.01
2023-05-05T20:22:56.133Z,53.91
2023-05-05T20:25:25.097Z,54.14
2023-05-05T20:27:54.006Z,54.25
2023-05-05T20:30:22.872Z,54.29
2023-05-05T20:32:52.595Z,54.31
2023-05-05T20:35:21.525Z,53.85
2023-05-05T20:37:51.312Z,54.39
2023-05-05T20:40:21.397Z,54.14
2023-05-05T20:42:50.356Z,54.32
2023-05-05T20:45:19.214Z,54.49
2023-05-05T20:47:48.399Z,54.10
2023-05-05T20:50:18.614Z,54.45
2023-05-05T20:52:48.059Z,54.20
2023-05-05T20:55:17.134Z,54.66
2023-05-05T20:57:47.461Z,54.27
2023-05-05T21:00:16.742Z,54.36
2023-05-05T21:02:45.932Z,54.58
2023-05-05T21:05:15.418Z,54.81
2023-05-05T21:07:44.622Z,54.72
2023-05-05T21:10:13.366Z,54.39
2023-05-05T21:12:42.544Z,54.56
2023-05-05T21:15:13.453Z,54.36
2023-05-05T21:17:42.439Z,54.91
2023-05-05T21:20:13.180Z,55.00
2023-05-05T21:22:42.540Z,54.74
2023-05-05T21:25:17.743Z,54.78
2023-05-05T21:27:47.894Z,54.96
2023-05-05T21:30:18.455Z,54.81
2023-05-05T21:32:47.708Z,54.98
2023-05-05T21:35:16.538Z,54.64
2023-05-05T21:37:45.593Z,53.95
2023-05-05T21:40:16.272Z,54.26
2023-05-05T21:42:45.375Z,54.31
2023-05-05T21:45:14.085Z,54.34
2023-05-05T21:47:44.441Z,54.50
2023-05-05T21:50:13.834Z,54.45
2023-05-05T21:52:42.871Z,54.63
2023-05-05T21:55:11.696Z,55.05
2023-05-05T21:57:40.759Z,55.26
2023-05-05T22:00:16.641Z,55.27
2023-05-05T22:02:47.061Z,55.42
2023-05-05T22:05:15.771Z,55.74
2023-05-05T22:07:44.763Z,55.56
2023-05-05T22:10:13.563Z,55.62
2023-05-05T22:12:42.567Z,55.58
2023-05-05T22:15:12.396Z,55.92
2023-05-05T22:17:41.483Z,56.32
2023-05-05T22:20:12.681Z,56.91
2023-05-05T22:22:41.660Z,56.40
2023-05-05T22:25:11.495Z,56.63
2023-05-05T22:27:41.027Z,56.80
2023-05-05T22:30:11.262Z,57.19
2023-05-05T22:32:41.009Z,57.11
2023-05-05T22:35:11.803Z,57.08
2023-05-05T22:37:41.160Z,57.15
2023-05-05T22:40:11.020Z,57.09
2023-05-05T22:42:40.260Z,57.13
2023-05-05T22:45:10.572Z,57.37
2023-05-05T22:47:39.995Z,57.58
2023-05-05T22:50:12.022Z,57.71
2023-05-05T22:52:41.056Z,57.88
2023-05-05T22:55:10.669Z,57.73
2023-05-05T22:57:39.832Z,58.21
2023-05-05T23:00:11.081Z,58.23
2023-05-05T23:02:40.426Z,58.07
2023-05-05T23:05:11.712Z,58.29
2023-05-05T23:07:40.981Z,58.15
2023-05-05T23:10:10.890Z,58.03
2023-05-05T23:12:39.882Z,58.42
2023-05-05T23:15:10.600Z,58.63
2023-05-05T23:17:40.077Z,58.96
2023-05-05T23:20:13.308Z,58.84
2023-05-05T23:22:42.379Z,59.28
2023-05-05T23:25:11.629Z,59.64
2023-05-05T23:27:41.320Z,59.76
2023-05-05T23:30:11.428Z,59.41
2023-05-05T23:32:40.570Z,60.18
2023-05-05T23:35:11.666Z,60.37
2023-05-05T23:37:40.833Z,60.38
2023-05-05T23:40:10.875Z,60.53
2023-05-05T23:42:39.860Z,60.62
2023-05-05T23:45:10.730Z,61.02
2023-05-05T23:47:40.338Z,61.14
2023-05-05T23:50:11.844Z,61.41
2023-05-05T23:52:41.799Z,61.61
2023-05-05T23:55:11.430Z,61.78
2023-05-05T23:57:40.690Z,61.05
